createdAt,value
2019-03-09T00:00:36.773Z,8.67
2019-03-09T00:03:07.768Z,7.23
2019-03-09T00:05:38.561Z,5.97
2019-03-09T00:08:10.192Z,7.17
2019-03-09T00:10:46.361Z,9.73
2019-03-09T00:13:17.141Z,7.00
2019-03-09T00:15:53.523Z,8.10
2019-03-09T00:18:24.211Z,11.63
2019-03-09T00:20:54.943Z,10.17
2019-03-09T00:23:42.407Z,5.90
2019-03-09T00:26:18.713Z,7.20
2019-03-09T00:29:03.019Z,10.83
2019-03-09T00:31:44.253Z,8.30
2019-03-09T00:34:30.099Z,10.63
2019-03-09T00:37:00.785Z,8.13
2019-03-09T00:39:40.688Z,9.23
2019-03-09T00:42:11.455Z,13.40
2019-03-09T00:44:42.084Z,8.77
2019-03-09T00:47:12.767Z,5.97
2019-03-09T00:49:50.645Z,7.47
2019-03-09T00:52:24.860Z,7.77
2019-03-09T00:54:57.491Z,12.77
2019-03-09T00:57:28.118Z,12.13
2019-03-09T00:59:59.306Z,6.73
2019-03-09T01:02:29.953Z,5.47
2019-03-09T01:05:01.591Z,8.37
2019-03-09T01:07:33.334Z,9.80
2019-03-09T01:10:04.361Z,7.07
2019-03-09T01:12:35.047Z,12.43
2019-03-09T01:15:06.336Z,7.07
2019-03-09T01:17:37.021Z,9.33
2019-03-09T01:20:10.160Z,8.20
2019-03-09T01:22:40.739Z,10.83
2019-03-09T01:25:11.668Z,6.23
2019-03-09T01:27:42.400Z,10.37
2019-03-09T01:30:15.439Z,7.47
2019-03-09T01:32:46.262Z,9.40
2019-03-09T01:35:29.439Z,6.47
2019-03-09T01:38:13.420Z,7.60
2019-03-09T01:40:44.117Z,7.67
2019-03-09T01:43:14.713Z,7.70
2019-03-09T01:45:45.413Z,5.87
2019-03-09T01:48:16.115Z,8.43
2019-03-09T01:50:46.751Z,10.20
2019-03-09T01:53:20.621Z,6.60
2019-03-09T01:55:51.282Z,6.67
2019-03-09T01:58:22.013Z,8.60
2019-03-09T02:00:56.680Z,10.63
2019-03-09T02:03:27.460Z,10.47
2019-03-09T02:05:58.131Z,10.27
2019-03-09T02:08:29.754Z,7.90
2019-03-09T02:11:00.422Z,8.63
2019-03-09T02:13:31.025Z,11.53
2019-03-09T02:16:01.687Z,9.30
2019-03-09T02:18:32.255Z,9.87
2019-03-09T02:21:04.039Z,11.43
2019-03-09T02:23:34.760Z,7.13
2019-03-09T02:26:05.499Z,8.13
2019-03-09T02:28:36.210Z,11.40
2019-03-09T02:31:06.833Z,9.90
2019-03-09T02:33:37.525Z,12.93
2019-03-09T02:36:09.236Z,12.57
2019-03-09T02:38:41.582Z,13.07
2019-03-09T02:41:12.173Z,11.83
2019-03-09T02:43:42.734Z,17.00
2019-03-09T02:46:32.302Z,12.67
2019-03-09T02:49:02.994Z,15.73
2019-03-09T02:51:33.703Z,15.00
2019-03-09T02:54:04.515Z,12.33
2019-03-09T02:57:11.719Z,13.40
2019-03-09T02:59:42.437Z,7.60
2019-03-09T03:02:20.855Z,7.67
2019-03-09T03:04:51.564Z,8.43
2019-03-09T03:07:26.522Z,10.37
2019-03-09T03:10:03.791Z,6.83
2019-03-09T03:12:36.603Z,8.97
2019-03-09T03:15:13.278Z,7.00
2019-03-09T03:17:43.851Z,6.93
2019-03-09T03:20:36.725Z,5.53
2019-03-09T03:23:07.206Z,5.60
2019-03-09T03:25:37.899Z,6.20
2019-03-09T03:28:09.992Z,6.97
2019-03-09T03:30:43.835Z,6.00
2019-03-09T03:33:26.628Z,4.80
2019-03-09T03:36:01.025Z,6.67
2019-03-09T03:38:41.092Z,6.30
2019-03-09T03:41:12.812Z,4.27
2019-03-09T03:43:46.500Z,4.23
2019-03-09T03:46:17.248Z,6.03
2019-03-09T03:48:47.928Z,3.97
2019-03-09T03:51:18.524Z,4.73
2019-03-09T03:53:53.362Z,4.07
2019-03-09T03:56:27.957Z,3.70
2019-03-09T03:58:59.663Z,3.63
2019-03-09T04:01:34.269Z,3.60
2019-03-09T04:04:04.959Z,4.57
2019-03-09T04:06:35.684Z,6.20
2019-03-09T04:09:07.331Z,3.17
2019-03-09T04:11:39.335Z,5.30
2019-03-09T04:14:10.193Z,5.73
2019-03-09T04:16:41.015Z,7.37
2019-03-09T04:19:11.833Z,10.97
2019-03-09T04:21:42.610Z,10.20
2019-03-09T04:24:13.193Z,11.60
2019-03-09T04:26:43.908Z,10.37
2019-03-09T04:29:38.609Z,9.43
2019-03-09T04:32:09.356Z,7.57
2019-03-09T04:34:39.898Z,5.43
2019-03-09T04:37:10.549Z,5.20
2019-03-09T04:39:57.541Z,4.80
2019-03-09T04:42:34.239Z,4.60
2019-03-09T04:45:10.867Z,4.57
2019-03-09T04:47:41.536Z,4.63
2019-03-09T04:50:12.226Z,4.50
2019-03-09T04:52:49.163Z,4.83
2019-03-09T04:55:21.965Z,4.57
2019-03-09T05:01:19.955Z,4.00
2019-03-09T05:04:28.685Z,4.37
2019-03-09T05:07:13.747Z,4.30
2019-03-09T05:10:18.160Z,5.40
2019-03-09T05:13:37.365Z,4.80
2019-03-09T05:16:27.748Z,5.97
2019-03-09T05:19:04.803Z,5.60
2019-03-09T05:21:40.563Z,6.03
2019-03-09T05:24:13.303Z,8.37
2019-03-09T05:26:45.045Z,7.47
2019-03-09T05:29:23.199Z,6.63
2019-03-09T05:32:14.362Z,9.60
2019-03-09T05:34:46.971Z,7.10
2019-03-09T05:37:20.905Z,8.67
2019-03-09T05:39:55.277Z,6.83
2019-03-09T05:42:32.753Z,8.37
2019-03-09T05:45:06.937Z,8.13
2019-03-09T05:47:38.617Z,8.17
2019-03-09T05:50:12.880Z,7.97
2019-03-09T05:52:43.537Z,8.63
2019-03-09T05:55:16.808Z,9.50
2019-03-09T05:57:47.476Z,11.27
2019-03-09T06:00:18.373Z,10.30
2019-03-09T06:02:48.978Z,12.83
2019-03-09T06:05:33.642Z,12.07
2019-03-09T06:08:14.613Z,11.97
2019-03-09T06:10:45.265Z,16.10
2019-03-09T06:13:24.538Z,16.80
2019-03-09T06:15:55.234Z,19.60
2019-03-09T06:18:25.901Z,20.67
2019-03-09T06:21:02.298Z,23.23
2019-03-09T06:23:33.150Z,23.90
2019-03-09T06:26:03.922Z,25.10
2019-03-09T06:28:34.671Z,23.43
2019-03-09T06:31:07.406Z,29.03
2019-03-09T06:33:38.746Z,26.70
2019-03-09T06:36:45.254Z,27.20
2019-03-09T06:39:49.781Z,32.53
2019-03-09T06:42:34.031Z,27.23
2019-03-09T06:45:09.443Z,25.67
2019-03-09T06:47:40.178Z,27.43
2019-03-09T06:50:43.368Z,25.90
2019-03-09T06:53:14.006Z,28.47
2019-03-09T06:55:44.595Z,26.00
2019-03-09T06:58:15.212Z,24.73
2019-03-09T07:00:47.831Z,26.57
2019-03-09T07:03:18.589Z,24.83
2019-03-09T07:05:49.366Z,24.97
2019-03-09T07:08:23.974Z,16.37
2019-03-09T07:10:54.672Z,18.90
2019-03-09T07:13:25.290Z,19.20
2019-03-09T07:15:56.031Z,19.97
2019-03-09T07:18:30.408Z,21.70
2019-03-09T07:21:00.988Z,21.97
2019-03-09T07:23:36.183Z,23.73
2019-03-09T07:26:13.913Z,15.70
2019-03-09T07:28:45.512Z,17.70
2019-03-09T07:31:17.225Z,15.03
2019-03-09T07:33:47.881Z,18.93
2019-03-09T07:36:18.633Z,18.80
2019-03-09T07:38:49.936Z,17.50
2019-03-09T07:41:20.573Z,17.80
2019-03-09T07:43:51.229Z,20.27
2019-03-09T07:46:21.947Z,19.90
2019-03-09T07:49:03.123Z,21.13
2019-03-09T07:51:33.862Z,19.67
2019-03-09T07:54:04.612Z,21.53
2019-03-09T07:56:35.347Z,20.10
2019-03-09T07:59:06.083Z,20.53
2019-03-09T08:01:36.705Z,17.67
2019-03-09T08:04:07.354Z,18.67
2019-03-09T08:06:37.968Z,18.60
2019-03-09T08:09:09.069Z,16.20
2019-03-09T08:11:49.479Z,14.50
2019-03-09T08:14:20.169Z,15.47
2019-03-09T08:16:56.195Z,14.17
2019-03-09T08:19:41.197Z,11.63
2019-03-09T08:22:13.919Z,14.33
2019-03-09T08:24:44.526Z,12.73
2019-03-09T08:27:20.025Z,14.03
2019-03-09T08:30:02.084Z,17.50
2019-03-09T08:32:34.369Z,16.27
2019-03-09T08:35:05.431Z,16.00
2019-03-09T08:37:36.168Z,19.63
2019-03-09T08:40:18.406Z,18.23
2019-03-09T08:42:49.207Z,17.40
2019-03-09T08:45:20.065Z,14.43
2019-03-09T08:47:52.562Z,16.83
2019-03-09T08:50:23.270Z,13.27
2019-03-09T08:53:09.808Z,10.03
2019-03-09T08:55:44.518Z,12.50
2019-03-09T08:58:19.286Z,10.10
2019-03-09T09:00:50.059Z,10.93
2019-03-09T09:03:21.665Z,12.13
2019-03-09T09:05:52.394Z,10.77
2019-03-09T09:08:29.863Z,9.97
2019-03-09T09:11:06.625Z,12.03
2019-03-09T09:13:37.294Z,10.53
2019-03-09T09:16:08.050Z,12.47
2019-03-09T09:18:49.911Z,11.90
2019-03-09T09:21:23.729Z,9.40
2019-03-09T09:23:54.351Z,11.03
2019-03-09T09:26:26.970Z,11.47
2019-03-09T09:29:07.688Z,15.60
2019-03-09T09:31:43.235Z,8.43
2019-03-09T09:34:13.945Z,9.80
2019-03-09T09:36:46.226Z,13.07
2019-03-09T09:39:17.994Z,8.67
2019-03-09T09:41:48.798Z,9.33
2019-03-09T09:44:20.411Z,10.53
2019-03-09T09:46:51.179Z,10.60
2019-03-09T09:49:22.103Z,12.07
2019-03-09T09:51:52.761Z,11.13
2019-03-09T09:54:24.395Z,10.47
2019-03-09T09:57:06.607Z,8.63
2019-03-09T09:59:47.144Z,11.83
2019-03-09T10:02:17.923Z,8.83
2019-03-09T10:04:48.622Z,10.27
2019-03-09T10:07:19.291Z,11.03
2019-03-09T10:09:50.083Z,10.90
2019-03-09T10:12:20.750Z,13.33
2019-03-09T10:14:59.238Z,13.83
2019-03-09T10:17:29.952Z,11.97
2019-03-09T10:20:00.570Z,9.97
2019-03-09T10:22:31.388Z,9.20
2019-03-09T10:25:02.084Z,7.83
2019-03-09T10:27:37.853Z,14.90
2019-03-09T10:30:11.273Z,10.57
2019-03-09T10:32:54.689Z,9.90
2019-03-09T10:35:31.466Z,12.23
2019-03-09T10:38:05.246Z,12.00
2019-03-09T10:40:35.949Z,10.60
2019-03-09T10:43:06.610Z,9.73
2019-03-09T10:45:44.315Z,13.50
2019-03-09T10:48:17.554Z,18.00
2019-03-09T10:50:48.265Z,14.63
2019-03-09T10:53:25.815Z,13.97
2019-03-09T10:56:02.095Z,10.70
2019-03-09T10:58:32.796Z,9.63
2019-03-09T11:01:03.553Z,12.33
2019-03-09T11:03:34.241Z,11.00
2019-03-09T11:06:12.136Z,13.70
2019-03-09T11:08:44.912Z,9.03
2019-03-09T11:11:16.622Z,9.63
2019-03-09T11:13:52.004Z,8.83
2019-03-09T11:16:21.675Z,13.90
2019-03-09T11:18:56.039Z,10.47
2019-03-09T11:21:26.729Z,8.83
2019-03-09T11:23:57.473Z,10.17
2019-03-09T11:26:28.161Z,10.17
2019-03-09T11:28:58.854Z,15.43
2019-03-09T11:31:29.446Z,12.87
2019-03-09T11:34:00.125Z,12.23
2019-03-09T11:36:30.814Z,14.63
2019-03-09T11:39:01.308Z,11.30
2019-03-09T11:41:33.253Z,15.77
2019-03-09T11:44:11.656Z,14.80
2019-03-09T11:46:42.401Z,12.10
2019-03-09T11:49:14.133Z,19.80
2019-03-09T11:51:54.996Z,17.40
2019-03-09T11:54:25.529Z,14.50
2019-03-09T11:56:56.357Z,19.67
2019-03-09T11:59:27.027Z,16.07
2019-03-09T12:01:58.642Z,14.97
2019-03-09T12:04:29.263Z,15.37
2019-03-09T12:07:00.119Z,15.37
2019-03-09T12:09:30.813Z,10.87
2019-03-09T12:12:03.737Z,12.30
2019-03-09T12:14:34.420Z,10.43
2019-03-09T12:17:12.700Z,13.97
2019-03-09T12:19:38.570Z,11.07
2019-03-09T12:22:10.285Z,7.00
2019-03-09T12:24:40.981Z,10.80
2019-03-09T12:27:11.730Z,8.40
2019-03-09T12:29:42.450Z,7.27
2019-03-09T12:32:13.114Z,8.13
2019-03-09T12:34:43.966Z,9.70
2019-03-09T12:37:24.998Z,11.73
2019-03-09T12:39:55.612Z,8.03
2019-03-09T12:42:26.229Z,5.73
2019-03-09T12:44:56.956Z,10.60
2019-03-09T12:47:27.704Z,8.90
2019-03-09T12:50:04.492Z,9.93
2019-03-09T12:52:36.411Z,6.10
2019-03-09T12:55:07.194Z,7.83
2019-03-09T12:57:37.884Z,8.07
2019-03-09T13:00:16.615Z,8.03
2019-03-09T13:03:05.329Z,9.73
2019-03-09T13:05:35.902Z,9.10
2019-03-09T13:08:07.754Z,9.20
2019-03-09T13:10:43.609Z,12.87
2019-03-09T13:13:16.314Z,8.83
2019-03-09T13:15:47.009Z,11.37
2019-03-09T13:18:39.098Z,21.50
2019-03-09T13:21:14.720Z,16.43
2019-03-09T13:23:45.510Z,14.47
2019-03-09T13:26:17.124Z,15.90
2019-03-09T13:28:53.899Z,16.27
2019-03-09T13:31:24.571Z,16.03
2019-03-09T13:33:55.183Z,18.03
2019-03-09T13:36:26.007Z,17.13
2019-03-09T13:38:58.811Z,15.27
2019-03-09T13:41:29.782Z,22.67
2019-03-09T13:44:00.483Z,17.90
2019-03-09T13:46:31.257Z,18.97
2019-03-09T13:49:01.987Z,22.23
2019-03-09T13:51:37.993Z,15.90
2019-03-09T13:54:08.631Z,17.23
2019-03-09T13:56:39.402Z,11.00
2019-03-09T13:59:10.237Z,15.10
2019-03-09T14:01:41.261Z,12.67
2019-03-09T14:04:11.952Z,16.63
2019-03-09T14:06:46.586Z,12.10
2019-03-09T14:09:17.200Z,23.63
2019-03-09T14:11:54.863Z,16.63
2019-03-09T14:14:29.749Z,15.57
2019-03-09T14:17:00.365Z,22.93
2019-03-09T14:19:31.091Z,19.30
2019-03-09T14:22:03.816Z,18.50
2019-03-09T14:24:34.552Z,26.97
2019-03-09T14:27:10.844Z,15.97
2019-03-09T14:29:42.601Z,26.57
2019-03-09T14:32:13.925Z,22.50
2019-03-09T14:34:44.660Z,26.73
2019-03-09T14:37:15.426Z,24.43
2019-03-09T14:39:47.149Z,36.53
2019-03-09T14:42:21.304Z,20.93
2019-03-09T14:44:53.014Z,16.77
2019-03-09T14:47:23.668Z,19.07
2019-03-09T14:49:55.317Z,27.87
2019-03-09T14:52:32.321Z,22.57
2019-03-09T14:55:04.190Z,21.40
2019-03-09T14:57:34.916Z,24.07
2019-03-09T15:00:14.984Z,28.40
2019-03-09T15:02:48.938Z,25.63
2019-03-09T15:05:22.898Z,25.03
2019-03-09T15:07:53.639Z,22.50
2019-03-09T15:10:24.258Z,32.53
2019-03-09T15:12:54.936Z,31.10
2019-03-09T15:15:25.623Z,23.87
2019-03-09T15:17:59.839Z,23.90
2019-03-09T15:20:33.720Z,28.23
2019-03-09T15:23:05.513Z,21.07
2019-03-09T15:25:36.294Z,22.73
2019-03-09T15:28:07.973Z,27.13
2019-03-09T15:30:38.684Z,21.77
2019-03-09T15:33:09.396Z,23.00
2019-03-09T15:35:40.066Z,28.73
2019-03-09T15:38:10.910Z,25.23
2019-03-09T15:40:41.652Z,23.73
2019-03-09T15:43:12.447Z,14.50
2019-03-09T15:45:44.137Z,10.33
2019-03-09T15:48:18.417Z,11.40
2019-03-09T15:50:51.999Z,10.40
2019-03-09T15:53:24.429Z,9.93
2019-03-09T15:55:56.409Z,9.50
2019-03-09T15:58:28.868Z,10.40
2019-03-09T16:01:01.905Z,9.33
2019-03-09T16:03:35.017Z,13.33
2019-03-09T16:06:08.977Z,11.30
2019-03-09T16:08:42.642Z,18.57
2019-03-09T16:11:14.899Z,16.60
2019-03-09T16:13:45.831Z,19.87
2019-03-09T16:16:17.758Z,5.00
2019-03-09T16:18:51.889Z,4.80
2019-03-09T16:21:25.831Z,7.77
2019-03-09T16:23:59.084Z,4.47
2019-03-09T16:26:31.102Z,9.00
2019-03-09T16:29:05.130Z,2.87
2019-03-09T16:31:37.459Z,6.00
2019-03-09T16:34:08.568Z,8.13
2019-03-09T16:36:40.095Z,6.57
2019-03-09T16:39:10.788Z,7.10
2019-03-09T16:41:45.155Z,11.33
2019-03-09T16:44:17.138Z,8.67
2019-03-09T16:46:53.801Z,9.90
2019-03-09T16:49:25.389Z,9.33
2019-03-09T16:51:57.042Z,9.37
2019-03-09T16:54:29.690Z,4.60
2019-03-09T16:57:00.320Z,6.60
2019-03-09T16:59:41.277Z,8.87
2019-03-09T17:02:11.971Z,10.57
2019-03-09T17:05:05.460Z,9.97
2019-03-09T17:07:37.051Z,9.90
2019-03-09T17:10:14.580Z,8.20
2019-03-09T17:12:46.427Z,7.07
2019-03-09T17:15:24.335Z,7.03
2019-03-09T17:17:55.933Z,11.07
2019-03-09T17:20:26.621Z,7.40
2019-03-09T17:22:59.425Z,10.07
2019-03-09T17:25:33.143Z,10.17
2019-03-09T17:28:03.936Z,8.53
2019-03-09T17:30:34.589Z,8.53
2019-03-09T17:33:09.351Z,8.20
2019-03-09T17:35:43.098Z,11.93
2019-03-09T17:38:13.826Z,7.80
2019-03-09T17:40:45.667Z,11.33
2019-03-09T17:43:17.411Z,10.00
2019-03-09T17:45:49.377Z,6.80
2019-03-09T17:48:23.030Z,10.83
2019-03-09T17:50:56.007Z,14.10
2019-03-09T17:53:27.428Z,7.97
2019-03-09T17:55:59.142Z,11.63
2019-03-09T17:58:29.829Z,14.90
2019-03-09T18:01:00.565Z,10.87
2019-03-09T18:03:31.569Z,13.07
2019-03-09T18:06:08.338Z,11.77
2019-03-09T18:08:39.062Z,8.50
2019-03-09T18:11:10.821Z,12.00
2019-03-09T18:13:41.652Z,11.87
2019-03-09T18:16:13.344Z,10.97
2019-03-09T18:18:44.082Z,11.63
2019-03-09T18:21:15.908Z,16.93
2019-03-09T18:23:46.760Z,14.03
2019-03-09T18:26:19.431Z,12.60
2019-03-09T18:28:50.346Z,10.53
2019-03-09T18:31:22.212Z,14.47
2019-03-09T18:33:52.984Z,10.43
2019-03-09T18:36:27.058Z,10.40
2019-03-09T18:38:57.777Z,10.23
2019-03-09T18:41:28.660Z,11.73
2019-03-09T18:43:59.456Z,10.63
2019-03-09T18:46:32.224Z,11.77
2019-03-09T18:49:04.063Z,9.43
2019-03-09T18:51:34.859Z,10.60
2019-03-09T18:54:06.088Z,12.73
2019-03-09T18:56:37.287Z,12.67
2019-03-09T18:59:15.090Z,10.00
2019-03-09T19:01:46.890Z,16.30
2019-03-09T19:04:19.898Z,15.13
2019-03-09T19:06:50.666Z,11.93
2019-03-09T19:09:21.708Z,13.93
2019-03-09T19:11:52.419Z,19.67
2019-03-09T19:14:23.287Z,13.70
2019-03-09T19:16:54.088Z,14.57
2019-03-09T19:19:25.017Z,11.90
2019-03-09T19:21:59.061Z,17.50
2019-03-09T19:24:33.355Z,13.97
2019-03-09T19:27:06.183Z,10.30
2019-03-09T19:29:36.898Z,15.07
2019-03-09T19:32:08.775Z,13.47
2019-03-09T19:34:39.737Z,11.77
2019-03-09T19:37:14.818Z,13.23
2019-03-09T19:39:45.562Z,14.27
2019-03-09T19:42:16.409Z,17.90
2019-03-09T19:44:47.309Z,13.77
2019-03-09T19:47:18.091Z,10.87
2019-03-09T19:49:54.668Z,13.43
2019-03-09T19:52:28.356Z,14.87
2019-03-09T19:55:08.306Z,13.17
2019-03-09T19:57:44.514Z,14.30
2019-03-09T20:00:18.538Z,12.83
2019-03-09T20:02:55.591Z,12.17
2019-03-09T20:05:33.409Z,14.83
2019-03-09T20:08:10.020Z,13.30
2019-03-09T20:10:40.661Z,18.70
2019-03-09T20:13:11.521Z,12.97
2019-03-09T20:15:45.614Z,12.00
2019-03-09T20:18:16.465Z,12.17
2019-03-09T20:20:52.446Z,13.03
2019-03-09T20:23:32.243Z,19.87
2019-03-09T20:26:03.194Z,14.37
2019-03-09T20:28:35.392Z,13.07
2019-03-09T20:31:06.128Z,13.23
2019-03-09T20:33:46.860Z,14.67
2019-03-09T20:36:19.800Z,15.00
2019-03-09T20:38:51.763Z,12.93
2019-03-09T20:41:23.651Z,10.43
2019-03-09T20:43:55.048Z,16.60
2019-03-09T20:46:29.279Z,14.60
2019-03-09T20:49:09.278Z,17.03
2019-03-09T20:51:41.185Z,11.63
2019-03-09T20:54:12.991Z,16.53
2019-03-09T20:56:43.669Z,9.67
2019-03-09T20:59:14.376Z,13.83
2019-03-09T21:01:45.109Z,12.67
2019-03-09T21:04:16.685Z,16.23
2019-03-09T21:06:49.371Z,10.23
2019-03-09T21:09:20.000Z,12.83
2019-03-09T21:11:54.111Z,11.87
2019-03-09T21:14:24.861Z,9.10
2019-03-09T21:16:55.555Z,8.87
2019-03-09T21:19:26.227Z,10.27
2019-03-09T21:21:56.813Z,10.47
2019-03-09T21:24:27.494Z,9.10
2019-03-09T21:27:00.069Z,9.07
2019-03-09T21:29:31.757Z,7.33
2019-03-09T21:32:02.621Z,12.20
2019-03-09T21:34:33.330Z,8.33
2019-03-09T21:37:11.807Z,9.10
2019-03-09T21:39:42.425Z,11.57
2019-03-09T21:42:13.090Z,7.57
2019-03-09T21:44:43.894Z,10.10
2019-03-09T21:47:16.496Z,9.77
2019-03-09T21:49:47.242Z,7.27
2019-03-09T21:52:17.840Z,45.30
2019-03-09T21:54:49.458Z,12.30
2019-03-09T21:57:19.950Z,13.57
2019-03-09T21:59:50.712Z,10.13
2019-03-09T22:02:21.417Z,11.87
2019-03-09T22:04:53.039Z,10.00
2019-03-09T22:07:31.790Z,11.60
2019-03-09T22:10:02.516Z,12.27
2019-03-09T22:12:33.886Z,9.40
2019-03-09T22:15:11.848Z,9.30
2019-03-09T22:17:47.661Z,10.97
2019-03-09T22:20:20.475Z,10.03
2019-03-09T22:22:50.736Z,13.80
2019-03-09T22:25:21.541Z,11.40
2019-03-09T22:27:58.389Z,11.53
2019-03-09T22:30:29.118Z,13.03
2019-03-09T22:32:59.783Z,16.73
2019-03-09T22:35:36.675Z,12.37
2019-03-09T22:38:15.184Z,15.73
2019-03-09T22:40:46.421Z,17.13
2019-03-09T22:43:17.140Z,10.00
2019-03-09T22:45:48.851Z,10.87
2019-03-09T22:48:23.804Z,16.63
2019-03-09T22:50:54.499Z,14.17
2019-03-09T22:53:25.070Z,18.93
2019-03-09T22:56:08.642Z,14.50
2019-03-09T22:58:39.574Z,13.87
2019-03-09T23:01:27.864Z,20.53
2019-03-09T23:03:59.909Z,16.20
2019-03-09T23:06:30.881Z,12.10
2019-03-09T23:09:30.354Z,16.67
2019-03-09T23:12:12.394Z,13.07
2019-03-09T23:14:43.287Z,23.73
2019-03-09T23:17:24.896Z,20.67
2019-03-09T23:19:55.569Z,16.07
2019-03-09T23:22:30.370Z,17.97
2019-03-09T23:25:15.770Z,22.20
2019-03-09T23:31:01.630Z,20.97
2019-03-09T23:33:51.433Z,18.03
2019-03-09T23:36:22.419Z,17.37
2019-03-09T23:38:53.334Z,22.93
2019-03-09T23:41:34.433Z,21.10
2019-03-09T23:44:05.650Z,20.67
2019-03-09T23:46:36.480Z,23.20
2019-03-09T23:49:07.141Z,16.27
2019-03-09T23:51:38.188Z,22.47
2019-03-09T23:54:08.830Z,22.50
2019-03-09T23:56:50.306Z,25.70
2019-03-09T23:59:23.114Z,18.37
